sensor_id;sensor_type;location;lat;lon;timestamp;temperature;humidity
53645;DHT22;39547;45.554;12.068;2024-02-21T00:01:55;9.40;88.50
53645;DHT22;39547;45.554;12.068;2024-02-21T00:07:59;9.40;88.60
53645;DHT22;39547;45.554;12.068;2024-02-21T00:14:00;9.30;88.60
53645;DHT22;39547;45.554;12.068;2024-02-21T00:20:03;9.30;88.70
53645;DHT22;39547;45.554;12.068;2024-02-21T00:26:04;9.30;88.70
53645;DHT22;39547;45.554;12.068;2024-02-21T00:32:07;9.20;88.50
53645;DHT22;39547;45.554;12.068;2024-02-21T00:38:09;9.20;88.60
53645;DHT22;39547;45.554;12.068;2024-02-21T00:44:10;9.20;88.50
53645;DHT22;39547;45.554;12.068;2024-02-21T00:50:12;9.10;88.60
53645;DHT22;39547;45.554;12.068;2024-02-21T00:56:13;9.00;88.60
53645;DHT22;39547;45.554;12.068;2024-02-21T01:02:15;9.00;88.70
53645;DHT22;39547;45.554;12.068;2024-02-21T01:08:17;8.90;88.70
53645;DHT22;39547;45.554;12.068;2024-02-21T01:14:19;8.90;88.70
53645;DHT22;39547;45.554;12.068;2024-02-21T01:20:21;8.80;88.70
53645;DHT22;39547;45.554;12.068;2024-02-21T01:26:22;8.80;88.80
53645;DHT22;39547;45.554;12.068;2024-02-21T01:32:24;8.70;88.90
53645;DHT22;39547;45.554;12.068;2024-02-21T01:38:25;8.70;88.80
53645;DHT22;39547;45.554;12.068;2024-02-21T01:44:27;8.70;88.90
53645;DHT22;39547;45.554;12.068;2024-02-21T01:50:29;8.60;88.90
53645;DHT22;39547;45.554;12.068;2024-02-21T01:56:30;8.60;88.90
53645;DHT22;39547;45.554;12.068;2024-02-21T02:02:32;8.60;88.90
53645;DHT22;39547;45.554;12.068;2024-02-21T02:08:33;8.50;88.80
53645;DHT22;39547;45.554;12.068;2024-02-21T02:14:35;8.50;88.80
53645;DHT22;39547;45.554;12.068;2024-02-21T02:20:37;8.40;88.90
53645;DHT22;39547;45.554;12.068;2024-02-21T02:26:39;8.40;88.90
53645;DHT22;39547;45.554;12.068;2024-02-21T02:32:47;8.40;88.90
53645;DHT22;39547;45.554;12.068;2024-02-21T02:38:48;8.30;89.00
53645;DHT22;39547;45.554;12.068;2024-02-21T02:44:50;8.30;89.00
53645;DHT22;39547;45.554;12.068;2024-02-21T02:50:52;8.30;89.10
53645;DHT22;39547;45.554;12.068;2024-02-21T02:56:54;8.20;89.10
53645;DHT22;39547;45.554;12.068;2024-02-21T03:02:55;8.20;89.10
53645;DHT22;39547;45.554;12.068;2024-02-21T03:08:57;8.20;89.00
53645;DHT22;39547;45.554;12.068;2024-02-21T03:14:58;8.20;89.00
53645;DHT22;39547;45.554;12.068;2024-02-21T03:21:00;8.10;89.00
53645;DHT22;39547;45.554;12.068;2024-02-21T03:27:01;8.00;88.90
53645;DHT22;39547;45.554;12.068;2024-02-21T03:33:03;8.00;88.90
53645;DHT22;39547;45.554;12.068;2024-02-21T03:39:05;8.00;88.80
53645;DHT22;39547;45.554;12.068;2024-02-21T03:45:07;8.00;88.90
53645;DHT22;39547;45.554;12.068;2024-02-21T03:51:08;7.90;88.90
53645;DHT22;39547;45.554;12.068;2024-02-21T03:57:10;7.90;88.80
53645;DHT22;39547;45.554;12.068;2024-02-21T04:03:11;7.80;88.20
53645;DHT22;39547;45.554;12.068;2024-02-21T04:09:13;7.70;88.60
53645;DHT22;39547;45.554;12.068;2024-02-21T04:15:14;7.60;88.80
53645;DHT22;39547;45.554;12.068;2024-02-21T04:21:17;7.60;88.80
53645;DHT22;39547;45.554;12.068;2024-02-21T04:27:18;7.50;89.00
53645;DHT22;39547;45.554;12.068;2024-02-21T04:33:20;7.50;88.90
53645;DHT22;39547;45.554;12.068;2024-02-21T04:39:21;7.50;88.90
53645;DHT22;39547;45.554;12.068;2024-02-21T04:45:22;7.40;88.80
53645;DHT22;39547;45.554;12.068;2024-02-21T04:51:24;7.30;88.60
53645;DHT22;39547;45.554;12.068;2024-02-21T04:57:26;7.20;88.90
53645;DHT22;39547;45.554;12.068;2024-02-21T05:03:27;7.10;89.20
53645;DHT22;39547;45.554;12.068;2024-02-21T05:09:28;7.10;89.50
53645;DHT22;39547;45.554;12.068;2024-02-21T05:15:30;7.20;89.50
53645;DHT22;39547;45.554;12.068;2024-02-21T05:21:32;7.10;89.50
53645;DHT22;39547;45.554;12.068;2024-02-21T05:27:34;7.10;89.40
53645;DHT22;39547;45.554;12.068;2024-02-21T05:33:37;7.10;89.40
53645;DHT22;39547;45.554;12.068;2024-02-21T05:39:38;7.00;89.40
53645;DHT22;39547;45.554;12.068;2024-02-21T05:45:40;7.00;89.50
53645;DHT22;39547;45.554;12.068;2024-02-21T05:51:42;7.10;89.50
53645;DHT22;39547;45.554;12.068;2024-02-21T05:57:43;7.00;89.30
53645;DHT22;39547;45.554;12.068;2024-02-21T06:03:44;6.90;89.20
53645;DHT22;39547;45.554;12.068;2024-02-21T06:09:46;6.90;89.30
53645;DHT22;39547;45.554;12.068;2024-02-21T06:15:48;6.80;89.10
53645;DHT22;39547;45.554;12.068;2024-02-21T06:21:50;6.70;89.30
53645;DHT22;39547;45.554;12.068;2024-02-21T06:27:51;6.80;89.50
53645;DHT22;39547;45.554;12.068;2024-02-21T06:33:53;6.80;89.70
53645;DHT22;39547;45.554;12.068;2024-02-21T06:39:54;6.90;89.80
53645;DHT22;39547;45.554;12.068;2024-02-21T06:45:56;7.00;90.00
53645;DHT22;39547;45.554;12.068;2024-02-21T06:51:58;7.10;90.10
53645;DHT22;39547;45.554;12.068;2024-02-21T06:57:59;7.20;90.10
53645;DHT22;39547;45.554;12.068;2024-02-21T07:04:01;7.20;90.20
53645;DHT22;39547;45.554;12.068;2024-02-21T07:10:03;7.40;90.30
53645;DHT22;39547;45.554;12.068;2024-02-21T07:16:07;7.50;90.40
53645;DHT22;39547;45.554;12.068;2024-02-21T07:22:09;7.70;90.60
53645;DHT22;39547;45.554;12.068;2024-02-21T07:28:11;7.80;90.80
53645;DHT22;39547;45.554;12.068;2024-02-21T07:34:13;8.00;90.80
53645;DHT22;39547;45.554;12.068;2024-02-21T07:40:17;8.20;90.60
53645;DHT22;39547;45.554;12.068;2024-02-21T07:46:19;8.30;90.60
53645;DHT22;39547;45.554;12.068;2024-02-21T07:52:20;8.50;90.70
53645;DHT22;39547;45.554;12.068;2024-02-21T07:58:22;8.70;90.90
53645;DHT22;39547;45.554;12.068;2024-02-21T08:04:25;9.00;90.90
53645;DHT22;39547;45.554;12.068;2024-02-21T08:10:27;9.20;90.90
53645;DHT22;39547;45.554;12.068;2024-02-21T08:16:28;9.40;90.80
53645;DHT22;39547;45.554;12.068;2024-02-21T08:22:32;9.60;90.80
53645;DHT22;39547;45.554;12.068;2024-02-21T08:28:33;9.80;90.20
53645;DHT22;39547;45.554;12.068;2024-02-21T08:34:35;10.10;89.90
53645;DHT22;39547;45.554;12.068;2024-02-21T08:40:36;10.30;89.40
53645;DHT22;39547;45.554;12.068;2024-02-21T08:46:38;10.50;89.50
53645;DHT22;39547;45.554;12.068;2024-02-21T08:52:41;10.70;89.20
53645;DHT22;39547;45.554;12.068;2024-02-21T08:58:43;10.80;89.10
53645;DHT22;39547;45.554;12.068;2024-02-21T09:04:45;11.00;87.50
53645;DHT22;39547;45.554;12.068;2024-02-21T09:10:47;11.20;88.60
53645;DHT22;39547;45.554;12.068;2024-02-21T09:16:48;11.40;88.40
53645;DHT22;39547;45.554;12.068;2024-02-21T09:22:52;11.70;87.70
53645;DHT22;39547;45.554;12.068;2024-02-21T09:28:55;11.80;86.80
53645;DHT22;39547;45.554;12.068;2024-02-21T09:34:57;12.00;87.50
53645;DHT22;39547;45.554;12.068;2024-02-21T09:41:00;12.20;86.20
53645;DHT22;39547;45.554;12.068;2024-02-21T09:53:18;12.50;86.30
53645;DHT22;39547;45.554;12.068;2024-02-21T09:59:22;12.70;85.20
53645;DHT22;39547;45.554;12.068;2024-02-21T10:05:25;12.70;84.20
53645;DHT22;39547;45.554;12.068;2024-02-21T10:11:28;12.90;83.70
53645;DHT22;39547;45.554;12.068;2024-02-21T10:17:30;13.00;84.00
53645;DHT22;39547;45.554;12.068;2024-02-21T10:23:49;13.20;83.30
53645;DHT22;39547;45.554;12.068;2024-02-21T10:29:53;13.30;83.60
53645;DHT22;39547;45.554;12.068;2024-02-21T10:35:55;13.50;82.80
53645;DHT22;39547;45.554;12.068;2024-02-21T10:42:07;13.60;81.00
53645;DHT22;39547;45.554;12.068;2024-02-21T10:48:14;13.70;82.50
53645;DHT22;39547;45.554;12.068;2024-02-21T10:54:38;13.80;80.10
53645;DHT22;39547;45.554;12.068;2024-02-21T11:00:40;14.00;81.10
53645;DHT22;39547;45.554;12.068;2024-02-21T11:06:44;14.20;80.70
53645;DHT22;39547;45.554;12.068;2024-02-21T11:12:45;14.30;81.70
53645;DHT22;39547;45.554;12.068;2024-02-21T11:18:47;14.40;75.90
53645;DHT22;39547;45.554;12.068;2024-02-21T11:24:48;14.50;79.80
53645;DHT22;39547;45.554;12.068;2024-02-21T11:30:50;14.70;79.50
53645;DHT22;39547;45.554;12.068;2024-02-21T11:36:52;14.80;77.70
53645;DHT22;39547;45.554;12.068;2024-02-21T11:42:59;15.00;77.70
53645;DHT22;39547;45.554;12.068;2024-02-21T11:49:01;15.10;78.10
53645;DHT22;39547;45.554;12.068;2024-02-21T11:55:05;15.20;76.80
53645;DHT22;39547;45.554;12.068;2024-02-21T12:01:09;15.20;71.10
53645;DHT22;39547;45.554;12.068;2024-02-21T12:07:11;15.30;71.90
53645;DHT22;39547;45.554;12.068;2024-02-21T12:13:12;15.50;71.20
53645;DHT22;39547;45.554;12.068;2024-02-21T12:19:14;15.60;66.70
53645;DHT22;39547;45.554;12.068;2024-02-21T12:25:19;15.60;68.40
53645;DHT22;39547;45.554;12.068;2024-02-21T12:31:24;15.80;70.70
53645;DHT22;39547;45.554;12.068;2024-02-21T12:37:25;16.00;71.10
53645;DHT22;39547;45.554;12.068;2024-02-21T12:43:27;16.10;72.40
53645;DHT22;39547;45.554;12.068;2024-02-21T12:49:28;16.20;69.00
53645;DHT22;39547;45.554;12.068;2024-02-21T12:55:30;16.20;67.50
53645;DHT22;39547;45.554;12.068;2024-02-21T13:01:32;16.30;64.20
53645;DHT22;39547;45.554;12.068;2024-02-21T13:07:34;16.30;64.70
53645;DHT22;39547;45.554;12.068;2024-02-21T13:13:36;16.40;67.60
53645;DHT22;39547;45.554;12.068;2024-02-21T13:19:37;16.50;67.70
53645;DHT22;39547;45.554;12.068;2024-02-21T13:25:38;16.70;67.40
53645;DHT22;39547;45.554;12.068;2024-02-21T13:31:40;16.60;68.00
53645;DHT22;39547;45.554;12.068;2024-02-21T13:37:42;16.60;66.20
53645;DHT22;39547;45.554;12.068;2024-02-21T13:43:43;16.60;64.40
53645;DHT22;39547;45.554;12.068;2024-02-21T13:49:45;16.50;62.40
53645;DHT22;39547;45.554;12.068;2024-02-21T13:55:47;16.50;66.40
53645;DHT22;39547;45.554;12.068;2024-02-21T14:01:48;16.50;66.50
53645;DHT22;39547;45.554;12.068;2024-02-21T14:07:51;16.50;63.60
53645;DHT22;39547;45.554;12.068;2024-02-21T14:13:55;16.50;63.90
53645;DHT22;39547;45.554;12.068;2024-02-21T14:19:59;16.40;65.00
53645;DHT22;39547;45.554;12.068;2024-02-21T14:26:00;16.20;63.80
53645;DHT22;39547;45.554;12.068;2024-02-21T14:32:02;16.10;67.60
53645;DHT22;39547;45.554;12.068;2024-02-21T14:38:07;16.10;67.30
53645;DHT22;39547;45.554;12.068;2024-02-21T14:44:09;16.10;66.20
53645;DHT22;39547;45.554;12.068;2024-02-21T14:50:11;16.00;67.40
53645;DHT22;39547;45.554;12.068;2024-02-21T14:56:13;15.90;67.60
53645;DHT22;39547;45.554;12.068;2024-02-21T15:02:16;15.80;68.10
53645;DHT22;39547;45.554;12.068;2024-02-21T15:08:18;15.80;68.70
53645;DHT22;39547;45.554;12.068;2024-02-21T15:14:20;15.80;68.40
53645;DHT22;39547;45.554;12.068;2024-02-21T15:20:22;15.70;69.20
53645;DHT22;39547;45.554;12.068;2024-02-21T15:26:23;15.60;69.70
53645;DHT22;39547;45.554;12.068;2024-02-21T15:32:25;15.40;70.10
53645;DHT22;39547;45.554;12.068;2024-02-21T15:38:27;15.30;70.30
53645;DHT22;39547;45.554;12.068;2024-02-21T15:44:29;15.20;70.90
53645;DHT22;39547;45.554;12.068;2024-02-21T15:50:31;15.00;71.80
53645;DHT22;39547;45.554;12.068;2024-02-21T15:56:32;14.80;72.80
53645;DHT22;39547;45.554;12.068;2024-02-21T16:02:34;14.70;73.50
53645;DHT22;39547;45.554;12.068;2024-02-21T16:08:37;14.50;72.60
53645;DHT22;39547;45.554;12.068;2024-02-21T16:14:41;14.20;74.30
53645;DHT22;39547;45.554;12.068;2024-02-21T16:20:43;14.10;74.90
53645;DHT22;39547;45.554;12.068;2024-02-21T16:26:45;13.80;75.30
53645;DHT22;39547;45.554;12.068;2024-02-21T16:32:46;13.70;75.90
53645;DHT22;39547;45.554;12.068;2024-02-21T16:38:50;13.50;76.40
53645;DHT22;39547;45.554;12.068;2024-02-21T16:44:52;13.20;77.00
53645;DHT22;39547;45.554;12.068;2024-02-21T16:50:53;13.00;77.50
53645;DHT22;39547;45.554;12.068;2024-02-21T16:56:56;12.80;78.10
53645;DHT22;39547;45.554;12.068;2024-02-21T17:02:57;12.70;78.50
53645;DHT22;39547;45.554;12.068;2024-02-21T17:08:59;12.50;79.00
53645;DHT22;39547;45.554;12.068;2024-02-21T17:15:05;12.40;79.40
53645;DHT22;39547;45.554;12.068;2024-02-21T17:21:08;12.30;79.80
53645;DHT22;39547;45.554;12.068;2024-02-21T17:27:10;12.20;80.00
53645;DHT22;39547;45.554;12.068;2024-02-21T17:33:12;12.10;80.40
53645;DHT22;39547;45.554;12.068;2024-02-21T17:39:14;12.00;80.60
53645;DHT22;39547;45.554;12.068;2024-02-21T17:45:16;11.90;80.90
53645;DHT22;39547;45.554;12.068;2024-02-21T17:51:18;11.80;81.20
53645;DHT22;39547;45.554;12.068;2024-02-21T17:57:20;11.70;81.40
53645;DHT22;39547;45.554;12.068;2024-02-21T18:03:21;11.70;81.60
53645;DHT22;39547;45.554;12.068;2024-02-21T18:09:23;11.60;81.80
53645;DHT22;39547;45.554;12.068;2024-02-21T18:15:25;11.50;82.00
53645;DHT22;39547;45.554;12.068;2024-02-21T18:21:26;11.50;82.20
53645;DHT22;39547;45.554;12.068;2024-02-21T18:27:28;11.40;82.40
53645;DHT22;39547;45.554;12.068;2024-02-21T18:33:31;11.30;82.60
53645;DHT22;39547;45.554;12.068;2024-02-21T18:39:32;11.20;82.70
53645;DHT22;39547;45.554;12.068;2024-02-21T18:45:34;11.20;82.90
53645;DHT22;39547;45.554;12.068;2024-02-21T18:51:36;11.10;83.10
53645;DHT22;39547;45.554;12.068;2024-02-21T18:57:37;11.00;83.30
53645;DHT22;39547;45.554;12.068;2024-02-21T19:03:39;11.00;83.50
53645;DHT22;39547;45.554;12.068;2024-02-21T19:09:40;10.90;83.70
53645;DHT22;39547;45.554;12.068;2024-02-21T19:15:42;10.90;83.90
53645;DHT22;39547;45.554;12.068;2024-02-21T19:21:44;10.80;84.00
53645;DHT22;39547;45.554;12.068;2024-02-21T19:27:46;10.70;84.20
53645;DHT22;39547;45.554;12.068;2024-02-21T19:33:47;10.70;84.40
53645;DHT22;39547;45.554;12.068;2024-02-21T19:39:49;10.70;84.50
53645;DHT22;39547;45.554;12.068;2024-02-21T19:45:50;10.60;84.70
53645;DHT22;39547;45.554;12.068;2024-02-21T19:51:52;10.60;84.80
53645;DHT22;39547;45.554;12.068;2024-02-21T19:57:53;10.60;84.90
53645;DHT22;39547;45.554;12.068;2024-02-21T20:03:55;10.50;85.00
53645;DHT22;39547;45.554;12.068;2024-02-21T20:09:58;10.50;85.10
53645;DHT22;39547;45.554;12.068;2024-02-21T20:16:00;10.40;85.30
53645;DHT22;39547;45.554;12.068;2024-02-21T20:22:02;10.40;85.40
53645;DHT22;39547;45.554;12.068;2024-02-21T20:28:04;10.40;85.50
53645;DHT22;39547;45.554;12.068;2024-02-21T20:34:05;10.30;85.60
53645;DHT22;39547;45.554;12.068;2024-02-21T20:40:07;10.30;85.70
53645;DHT22;39547;45.554;12.068;2024-02-21T20:46:10;10.30;85.80
53645;DHT22;39547;45.554;12.068;2024-02-21T20:52:11;10.20;85.90
53645;DHT22;39547;45.554;12.068;2024-02-21T20:58:13;10.20;86.00
53645;DHT22;39547;45.554;12.068;2024-02-21T21:04:14;10.20;86.10
53645;DHT22;39547;45.554;12.068;2024-02-21T21:10:16;10.20;86.20
53645;DHT22;39547;45.554;12.068;2024-02-21T21:16:18;10.20;86.30
53645;DHT22;39547;45.554;12.068;2024-02-21T21:22:19;10.10;86.30
53645;DHT22;39547;45.554;12.068;2024-02-21T21:28:21;10.10;86.40
53645;DHT22;39547;45.554;12.068;2024-02-21T21:34:23;10.10;86.50
53645;DHT22;39547;45.554;12.068;2024-02-21T21:40:24;10.10;86.60
53645;DHT22;39547;45.554;12.068;2024-02-21T21:46:27;10.00;86.60
53645;DHT22;39547;45.554;12.068;2024-02-21T21:52:29;10.00;86.70
53645;DHT22;39547;45.554;12.068;2024-02-21T21:58:32;10.10;86.80
53645;DHT22;39547;45.554;12.068;2024-02-21T22:04:34;10.10;86.80
53645;DHT22;39547;45.554;12.068;2024-02-21T22:10:37;10.00;86.80
53645;DHT22;39547;45.554;12.068;2024-02-21T22:16:38;10.10;86.80
53645;DHT22;39547;45.554;12.068;2024-02-21T22:22:40;10.00;86.80
53645;DHT22;39547;45.554;12.068;2024-02-21T22:28:41;10.00;86.70
53645;DHT22;39547;45.554;12.068;2024-02-21T22:34:43;9.90;86.80
53645;DHT22;39547;45.554;12.068;2024-02-21T22:40:44;9.80;86.80
53645;DHT22;39547;45.554;12.068;2024-02-21T22:46:46;9.70;87.00
53645;DHT22;39547;45.554;12.068;2024-02-21T22:52:47;9.70;87.20
53645;DHT22;39547;45.554;12.068;2024-02-21T22:58:49;9.60;87.30
53645;DHT22;39547;45.554;12.068;2024-02-21T23:04:52;9.60;87.40
53645;DHT22;39547;45.554;12.068;2024-02-21T23:10:53;9.60;87.50
53645;DHT22;39547;45.554;12.068;2024-02-21T23:16:56;9.60;87.50
53645;DHT22;39547;45.554;12.068;2024-02-21T23:22:57;9.50;87.60
53645;DHT22;39547;45.554;12.068;2024-02-21T23:28:59;9.50;87.70
53645;DHT22;39547;45.554;12.068;2024-02-21T23:35:00;9.60;87.80
53645;DHT22;39547;45.554;12.068;2024-02-21T23:41:02;9.50;87.80
53645;DHT22;39547;45.554;12.068;2024-02-21T23:47:03;9.50;87.90
53645;DHT22;39547;45.554;12.068;2024-02-21T23:53:05;9.50;88.00
53645;DHT22;39547;45.554;12.068;2024-02-21T23:59:06;9.50;88.00
